Time;durP1;ratioP1;P1;durP2;ratioP2;P2;SDS_P1;SDS_P2;PMS_P1;PMS_P2;Temp;Humidity;BMP_temperature;BMP_pressure;BME280_temperature;BME280_humidity;BME280_pressure;Samples;Min_cycle;Max_cycle;Signal;HPM_P1;HPM_P2
2021/12/15 00:01:50;;;;;;;393.88;192.18;;;2.50;99.90;;;;;;5094137;28;20028;-49
2021/12/15 00:04:16;;;;;;;422.85;208.32;;;2.50;99.90;;;;;;5093927;28;20104;-49
2021/12/15 00:06:42;;;;;;;414.10;202.95;;;2.40;99.90;;;;;;5094091;28;20481;-49
2021/12/15 00:09:13;;;;;;;407.65;200.52;;;2.30;99.90;;;;;;5094026;28;20027;-49
2021/12/15 00:11:40;;;;;;;408.30;199.63;;;2.30;99.90;;;;;;5094186;28;20075;-49
2021/12/15 00:14:12;;;;;;;390.13;193.52;;;2.30;99.90;;;;;;5093972;28;20028;-50
2021/12/15 00:16:39;;;;;;;396.30;195.93;;;2.30;99.90;;;;;;5093892;28;20028;-49
2021/12/15 00:19:06;;;;;;;415.70;204.63;;;2.40;99.90;;;;;;5094938;28;20385;-49
2021/12/15 00:21:32;;;;;;;424.42;207.70;;;2.50;99.90;;;;;;5097468;28;20472;-49
2021/12/15 00:23:59;;;;;;;449.77;219.35;;;2.40;99.90;;;;;;5097456;28;20031;-49
2021/12/15 00:26:25;;;;;;;464.33;229.05;;;2.50;99.90;;;;;;5097363;28;20401;-49
2021/12/15 00:28:52;;;;;;;494.20;238.35;;;2.40;99.90;;;;;;5097503;28;20016;-49
2021/12/15 00:31:19;;;;;;;505.27;239.25;;;2.40;99.90;;;;;;5097310;28;20085;-49
2021/12/15 00:33:45;;;;;;;513.42;248.02;;;2.40;99.90;;;;;;5097228;28;20390;-49
2021/12/15 00:36:12;;;;;;;485.13;236.90;;;2.40;99.90;;;;;;5097288;28;20035;-49
2021/12/15 00:38:39;;;;;;;450.05;222.30;;;2.30;99.90;;;;;;5097075;28;20028;-49
2021/12/15 00:41:05;;;;;;;446.30;222.32;;;2.30;99.90;;;;;;5097139;28;20063;-49
2021/12/15 00:43:32;;;;;;;452.55;224.05;;;2.30;99.90;;;;;;5095599;28;20036;-49
2021/12/15 00:45:58;;;;;;;446.95;216.32;;;2.30;99.90;;;;;;5095669;28;20051;-49
2021/12/15 00:48:24;;;;;;;452.77;218.60;;;2.30;99.90;;;;;;5097091;28;20036;-49
2021/12/15 00:50:50;;;;;;;476.50;233.38;;;2.30;99.90;;;;;;5097018;28;20028;-49
2021/12/15 00:53:16;;;;;;;508.55;242.65;;;2.20;99.90;;;;;;5096650;28;20043;-49
2021/12/15 00:55:43;;;;;;;491.10;235.77;;;2.30;99.90;;;;;;5095454;28;20024;-49
2021/12/15 00:58:11;;;;;;;503.77;244.88;;;2.30;99.90;;;;;;5096684;28;20046;-49
2021/12/15 01:00:47;;;;;;;512.53;246.57;;;2.30;99.90;;;;;;5096910;28;20028;-49
2021/12/15 01:03:14;;;;;;;522.60;249.68;;;2.30;99.90;;;;;;5095299;28;20024;-49
2021/12/15 01:05:45;;;;;;;521.03;248.25;;;2.30;99.90;;;;;;5096899;28;20078;-49
2021/12/15 01:08:18;;;;;;;493.85;239.10;;;2.30;99.90;;;;;;5095310;28;20020;-49
2021/12/15 01:11:14;;;;;;;513.53;246.38;;;2.30;99.90;;;;;;5095270;28;20032;-49
2021/12/15 01:21:53;;;;;;;726.47;342.25;;;2.30;99.90;;;;;;5095046;28;20039;-49
2021/12/15 01:24:20;;;;;;;758.13;362.15;;;2.30;99.90;;;;;;5094997;28;20108;-49
2021/12/15 01:26:46;;;;;;;471.23;212.93;;;2.30;99.90;;;;;;5096138;28;20133;-49
2021/12/15 01:29:12;;;;;;;665.13;312.35;;;2.40;99.90;;;;;;5096070;28;20115;-49
2021/12/15 01:31:38;;;;;;;626.67;303.55;;;2.40;99.90;;;;;;5096083;28;20061;-49
2021/12/15 01:34:04;;;;;;;574.50;265.00;;;2.40;99.90;;;;;;5096039;28;20114;-49
2021/12/15 01:36:30;;;;;;;562.45;258.00;;;2.30;99.90;;;;;;5096032;28;20054;-49
2021/12/15 01:38:56;;;;;;;539.03;250.77;;;2.30;99.90;;;;;;5096045;28;20028;-49
2021/12/15 01:41:23;;;;;;;500.35;229.77;;;2.30;99.90;;;;;;5095970;28;20024;-49
2021/12/15 01:49:40;;;;;;;496.75;225.07;;;2.20;99.90;;;;;;5095912;28;20102;-49
2021/12/15 01:52:18;;;;;;;472.15;219.93;;;2.20;99.90;;;;;;5095278;28;20036;-49
2021/12/15 01:54:55;;;;;;;450.65;208.55;;;2.20;99.90;;;;;;5095747;28;20040;-49
2021/12/15 01:57:25;;;;;;;411.00;189.80;;;2.20;99.90;;;;;;5095567;28;20028;-49
2021/12/15 01:59:52;;;;;;;434.20;198.77;;;2.30;99.90;;;;;;5094419;28;20032;-49
2021/12/15 02:02:19;;;;;;;425.73;198.18;;;2.20;99.90;;;;;;5095427;28;20051;-49
2021/12/15 02:04:47;;;;;;;441.90;203.85;;;2.20;99.90;;;;;;5095400;28;20405;-49
2021/12/15 02:07:16;;;;;;;441.50;210.07;;;2.30;99.90;;;;;;5094181;28;20043;-49
2021/12/15 02:12:17;;;;;;;430.27;200.18;;;2.30;99.90;;;;;;5094016;28;20038;-49
2021/12/15 02:14:43;;;;;;;419.77;200.73;;;2.20;99.90;;;;;;5095262;28;20115;-49
2021/12/15 02:17:11;;;;;;;413.30;200.07;;;2.20;99.90;;;;;;5093947;28;20046;-49
2021/12/15 02:19:37;;;;;;;434.58;207.25;;;2.10;99.90;;;;;;5095328;28;20032;-49
2021/12/15 02:22:04;;;;;;;431.70;206.95;;;2.10;99.90;;;;;;5095492;28;20055;-49
2021/12/15 02:24:32;;;;;;;386.90;184.63;;;2.10;99.90;;;;;;5095093;28;20028;-49
2021/12/15 02:27:00;;;;;;;426.42;200.68;;;2.10;99.90;;;;;;5094058;28;20162;-49
2021/12/15 02:29:31;;;;;;;414.83;198.10;;;2.20;99.90;;;;;;5095026;28;20028;-49
2021/12/15 02:32:08;;;;;;;432.90;211.93;;;2.10;99.90;;;;;;5093794;28;20537;-49
2021/12/15 02:37:17;;;;;;;411.45;199.60;;;2.00;99.90;;;;;;5093773;28;20036;-49
2021/12/15 02:39:49;;;;;;;412.50;200.35;;;2.00;99.90;;;;;;5093593;28;20120;-49
2021/12/15 02:42:16;;;;;;;442.13;212.60;;;2.00;99.90;;;;;;5094176;28;20553;-49
2021/12/15 02:44:43;;;;;;;426.95;207.90;;;2.00;99.90;;;;;;5094835;28;20032;-49
2021/12/15 02:47:19;;;;;;;453.58;219.80;;;2.00;99.90;;;;;;5094890;28;20427;-49
2021/12/15 02:49:46;;;;;;;449.55;218.18;;;2.00;99.90;;;;;;5094775;28;20024;-49
2021/12/15 02:52:12;;;;;;;431.83;210.68;;;2.00;99.90;;;;;;5094651;28;20072;-49
2021/12/15 02:54:38;;;;;;;430.67;208.65;;;1.90;99.90;;;;;;5094795;28;20485;-49
2021/12/15 02:57:09;;;;;;;416.92;204.48;;;1.90;99.90;;;;;;5094880;28;20059;-49
2021/12/15 02:59:47;;;;;;;464.70;223.48;;;1.90;99.90;;;;;;5094868;28;20111;-49
2021/12/15 03:02:38;;;;;;;459.63;228.55;;;1.90;99.90;;;;;;5094629;28;20043;-49
2021/12/15 03:05:16;;;;;;;457.40;221.15;;;1.90;99.90;;;;;;5094397;28;20042;-49
2021/12/15 03:07:51;;;;;;;416.63;203.00;;;2.00;99.90;;;;;;5094680;28;20095;-49
2021/12/15 03:15:49;;;;;;;490.60;251.50;;;2.10;99.90;;;;;;5094389;28;20424;-49
2021/12/15 03:18:27;;;;;;;450.38;224.50;;;2.10;99.90;;;;;;5094487;28;20389;-49
2021/12/15 03:21:05;;;;;;;433.20;214.52;;;2.10;99.90;;;;;;5094486;28;20440;-49
2021/12/15 03:23:37;;;;;;;416.85;205.75;;;2.20;99.90;;;;;;5094316;28;20039;-49
2021/12/15 03:26:04;;;;;;;430.77;216.07;;;2.10;99.90;;;;;;5094420;28;20028;-49
2021/12/15 03:37:02;;;;;;;442.77;217.80;;;2.20;99.90;;;;;;5094206;28;20105;-49
2021/12/15 03:39:33;;;;;;;444.73;223.18;;;2.30;99.90;;;;;;5094204;28;20036;-49
2021/12/15 03:42:03;;;;;;;459.48;222.65;;;2.20;99.90;;;;;;5094193;28;20336;-49
2021/12/15 03:44:31;;;;;;;391.90;191.50;;;2.10;99.90;;;;;;5094035;28;20036;-49
2021/12/15 03:46:58;;;;;;;376.33;179.05;;;2.20;99.90;;;;;;5094447;28;20032;-49
2021/12/15 03:49:24;;;;;;;389.08;182.73;;;2.20;99.90;;;;;;5094355;28;20076;-49
2021/12/15 03:51:51;;;;;;;384.80;187.93;;;2.20;99.90;;;;;;5094103;28;20071;-49
2021/12/15 03:54:17;;;;;;;402.75;197.05;;;2.10;99.90;;;;;;5097150;28;20385;-49
2021/12/15 03:56:46;;;;;;;414.60;204.40;;;2.10;99.90;;;;;;5098032;28;20039;-49
2021/12/15 03:59:12;;;;;;;442.42;219.70;;;2.10;99.90;;;;;;5097983;28;20409;-49
2021/12/15 04:01:38;;;;;;;467.88;223.93;;;2.00;99.90;;;;;;5098096;28;20051;-49
2021/12/15 04:04:06;;;;;;;444.30;218.07;;;2.00;99.90;;;;;;5097900;28;20120;-49
2021/12/15 04:06:36;;;;;;;447.35;216.35;;;2.00;99.90;;;;;;5097801;28;20023;-49
2021/12/15 04:09:08;;;;;;;435.07;209.43;;;2.00;99.90;;;;;;5097839;28;20024;-49
2021/12/15 04:11:37;;;;;;;436.60;211.15;;;2.00;99.90;;;;;;5098113;28;20344;-49
2021/12/15 04:14:08;;;;;;;463.65;223.48;;;2.00;99.90;;;;;;5097566;28;20538;-49
2021/12/15 04:19:09;;;;;;;454.23;219.82;;;2.00;99.90;;;;;;5097518;28;20028;-49
2021/12/15 04:21:38;;;;;;;436.23;212.15;;;1.90;99.90;;;;;;5097658;28;20032;-49
2021/12/15 04:24:04;;;;;;;437.88;216.20;;;1.90;99.90;;;;;;5097496;28;20047;-49
2021/12/15 04:26:30;;;;;;;462.30;227.18;;;1.90;99.90;;;;;;5097528;28;20073;-49
2021/12/15 04:28:57;;;;;;;486.40;248.30;;;1.90;99.90;;;;;;5097538;28;20032;-49
2021/12/15 04:31:27;;;;;;;478.02;239.45;;;1.80;99.90;;;;;;5097412;28;20045;-49
2021/12/15 04:34:04;;;;;;;504.65;251.60;;;1.80;99.90;;;;;;5097337;28;20039;-49
2021/12/15 04:36:34;;;;;;;488.73;247.00;;;1.80;99.90;;;;;;5097173;28;20035;-49
2021/12/15 04:39:03;;;;;;;448.70;222.32;;;1.90;99.90;;;;;;5097273;28;20041;-49
2021/12/15 04:41:29;;;;;;;409.33;197.55;;;1.90;99.90;;;;;;5097221;28;20148;-49
2021/12/15 04:43:59;;;;;;;388.85;182.10;;;1.90;99.90;;;;;;5097090;28;20071;-49
2021/12/15 04:46:32;;;;;;;360.75;173.75;;;1.90;99.90;;;;;;5097264;28;20099;-49
2021/12/15 04:48:59;;;;;;;356.92;174.73;;;1.90;99.90;;;;;;5096934;28;20020;-49
2021/12/15 04:51:25;;;;;;;419.90;200.25;;;2.00;99.90;;;;;;5096898;28;20028;-49
2021/12/15 04:53:52;;;;;;;402.23;202.40;;;1.90;99.90;;;;;;5096951;28;20036;-49
2021/12/15 04:56:20;;;;;;;430.98;215.02;;;1.90;99.90;;;;;;5096894;28;20373;-49
2021/12/15 04:58:48;;;;;;;462.83;224.50;;;1.90;99.90;;;;;;5096865;28;20024;-49
2021/12/15 05:01:15;;;;;;;469.02;232.75;;;1.90;99.90;;;;;;5096768;28;20098;-49
2021/12/15 05:03:42;;;;;;;433.80;217.00;;;1.90;99.90;;;;;;5096424;28;20477;-49
2021/12/15 05:06:08;;;;;;;438.63;219.52;;;1.90;99.90;;;;;;5095872;28;20020;-49
2021/12/15 05:08:36;;;;;;;383.08;180.52;;;1.90;99.90;;;;;;5096586;28;20107;-49
2021/12/15 05:11:03;;;;;;;300.45;145.13;;;2.00;99.90;;;;;;5096495;28;20063;-49
2021/12/15 05:13:29;;;;;;;286.92;137.23;;;2.00;99.90;;;;;;5096403;28;20432;-49
2021/12/15 05:15:56;;;;;;;262.70;119.13;;;2.00;99.90;;;;;;5095212;28;20084;-49
2021/12/15 05:18:22;;;;;;;256.67;117.43;;;2.00;99.90;;;;;;5096459;28;20485;-49
2021/12/15 05:20:51;;;;;;;260.67;118.18;;;2.10;99.90;;;;;;5096418;28;20023;-49
2021/12/15 05:23:18;;;;;;;254.70;118.72;;;2.00;99.90;;;;;;5096077;28;20032;-49
2021/12/15 05:25:46;;;;;;;269.90;121.90;;;2.00;99.90;;;;;;5096083;28;20036;-49
2021/12/15 05:28:12;;;;;;;272.92;124.65;;;2.00;99.90;;;;;;5096188;28;20032;-49
2021/12/15 05:30:39;;;;;;;282.05;132.00;;;2.00;99.90;;;;;;5095977;28;20372;-49
2021/12/15 05:33:05;;;;;;;274.35;129.63;;;2.00;99.90;;;;;;5096045;28;20071;-49
2021/12/15 05:35:33;;;;;;;307.17;144.35;;;2.00;99.90;;;;;;5096040;28;20028;-49
2021/12/15 05:38:00;;;;;;;306.23;140.95;;;2.00;99.90;;;;;;5094636;28;20036;-49
2021/12/15 05:40:28;;;;;;;310.30;139.88;;;2.00;99.90;;;;;;5095914;28;20024;-49
2021/12/15 05:42:56;;;;;;;293.75;134.45;;;2.00;99.90;;;;;;5095830;28;20564;-49
2021/12/15 05:45:27;;;;;;;258.95;118.22;;;2.00;99.90;;;;;;5095792;28;20036;-49
2021/12/15 05:47:53;;;;;;;;;;;2.10;99.90;;;;;;5096336;28;20393;-49
2021/12/15 05:50:20;;;;;;;316.02;148.85;;;2.00;99.90;;;;;;5095900;28;19915;-49
2021/12/15 05:52:47;;;;;;;308.42;151.20;;;2.00;99.90;;;;;;5095242;28;20396;-49
2021/12/15 05:55:15;;;;;;;323.20;158.13;;;2.00;99.90;;;;;;5095804;28;20049;-49
2021/12/15 05:57:41;;;;;;;346.23;163.25;;;2.10;99.90;;;;;;5095598;28;20024;-49
2021/12/15 06:00:12;;;;;;;334.63;164.10;;;2.10;99.90;;;;;;5095560;28;20030;-49
2021/12/15 06:02:39;;;;;;;336.88;157.70;;;2.10;99.90;;;;;;5095611;28;20424;-49
2021/12/15 06:05:06;;;;;;;396.48;186.93;;;2.00;99.90;;;;;;5095637;28;20194;-49
2021/12/15 06:07:32;;;;;;;393.63;185.45;;;2.00;99.90;;;;;;5095508;28;20016;-49
2021/12/15 06:09:58;;;;;;;355.85;169.90;;;2.10;99.90;;;;;;5095350;28;20020;-49
2021/12/15 06:12:25;;;;;;;452.67;214.05;;;2.00;99.90;;;;;;5095177;28;20106;-49
2021/12/15 06:14:51;;;;;;;395.23;186.23;;;2.00;99.90;;;;;;5095355;28;20066;-49
2021/12/15 06:17:17;;;;;;;343.25;165.65;;;2.00;99.90;;;;;;5091374;28;20032;-51
2021/12/15 06:19:43;;;;;;;360.48;177.07;;;2.10;99.90;;;;;;5086750;28;20104;-51
2021/12/15 06:22:11;;;;;;;388.85;182.80;;;2.10;99.90;;;;;;5081576;28;20019;-51
2021/12/15 06:24:38;;;;;;;379.25;177.65;;;2.10;99.90;;;;;;5088562;28;20016;-51
2021/12/15 06:27:15;;;;;;;398.75;182.23;;;2.10;99.90;;;;;;5102983;28;20043;-51
2021/12/15 06:29:41;;;;;;;364.45;166.60;;;2.10;99.90;;;;;;5082571;28;20021;-51
2021/12/15 06:32:07;;;;;;;360.83;167.85;;;2.30;99.90;;;;;;5083736;28;20470;-51
2021/12/15 06:34:33;;;;;;;411.35;188.43;;;2.30;99.90;;;;;;5093692;28;20122;-51
2021/12/15 06:37:00;;;;;;;350.27;163.13;;;2.30;99.90;;;;;;5093696;28;20050;-48
2021/12/15 06:39:26;;;;;;;385.30;178.63;;;2.30;99.90;;;;;;5093426;28;20032;-48
2021/12/15 06:41:52;;;;;;;397.35;181.73;;;2.30;99.90;;;;;;5093388;28;20024;-48
2021/12/15 06:44:19;;;;;;;412.15;185.10;;;2.30;99.90;;;;;;5082458;28;20043;-49
2021/12/15 06:47:19;;;;;;;382.67;176.30;;;2.30;99.90;;;;;;5086141;28;20392;-53
2021/12/15 07:00:31;;;;;;;305.08;140.48;;;2.50;99.90;;;;;;5092399;28;20053;-50
2021/12/15 07:02:59;;;;;;;319.70;134.32;;;2.60;99.90;;;;;;5087249;28;20031;-50
2021/12/15 07:05:26;;;;;;;306.10;136.20;;;2.60;99.90;;;;;;5092626;28;20020;-50
2021/12/15 07:07:54;;;;;;;301.38;128.43;;;2.60;99.90;;;;;;5077771;28;20028;-50
2021/12/15 07:10:24;;;;;;;260.92;105.35;;;2.60;99.90;;;;;;5090361;28;20480;-50
2021/12/15 07:12:50;;;;;;;257.73;97.80;;;2.60;99.90;;;;;;5085652;28;20062;-50
2021/12/15 07:15:17;;;;;;;286.17;99.93;;;2.60;99.90;;;;;;5088548;28;20034;-50
2021/12/15 07:17:46;;;;;;;290.48;93.38;;;2.60;99.90;;;;;;5087342;28;20042;-50
2021/12/15 07:22:59;;;;;;;238.48;92.35;;;2.40;99.90;;;;;;5087882;28;20024;-50
2021/12/15 07:25:25;;;;;;;;;;;2.50;99.90;;;;;;5089592;28;20115;-50
2021/12/15 07:27:52;;;;;;;245.80;93.43;;;2.50;99.90;;;;;;5090999;28;19908;-50
2021/12/15 07:30:19;;;;;;;276.90;102.35;;;2.50;99.90;;;;;;5092389;28;20021;-50
2021/12/15 07:32:49;;;;;;;244.90;96.33;;;2.50;99.90;;;;;;5097231;28;20032;-50
2021/12/15 07:35:16;;;;;;;257.08;98.45;;;2.50;99.90;;;;;;5082804;28;20068;-50
2021/12/15 07:37:43;;;;;;;274.52;97.40;;;2.40;99.90;;;;;;5078049;28;20115;-50
2021/12/15 07:40:18;;;;;;;293.50;99.35;;;2.40;99.90;;;;;;5078268;28;20074;-50
2021/12/15 07:42:56;;;;;;;223.57;89.20;;;2.40;99.90;;;;;;5077845;28;20540;-50
2021/12/15 07:45:24;;;;;;;210.82;83.38;;;2.50;99.90;;;;;;5079084;28;20505;-50
2021/12/15 07:47:55;;;;;;;223.82;88.35;;;2.60;99.90;;;;;;5095881;28;20016;-50
2021/12/15 07:50:22;;;;;;;201.25;86.25;;;2.60;99.90;;;;;;5096612;28;20031;-50
2021/12/15 07:52:49;;;;;;;172.07;75.72;;;2.70;99.90;;;;;;5086037;28;20083;-50
2021/12/15 07:55:17;;;;;;;201.93;79.28;;;2.60;99.90;;;;;;5088014;28;20109;-50
2021/12/15 07:57:46;;;;;;;311.23;88.25;;;2.60;99.90;;;;;;5078907;28;20032;-50
2021/12/15 08:00:15;;;;;;;246.35;85.90;;;2.50;99.90;;;;;;5097366;28;20621;-50
2021/12/15 08:02:41;;;;;;;202.07;81.38;;;2.40;99.90;;;;;;5094645;28;20053;-50
2021/12/15 08:05:08;;;;;;;208.23;80.82;;;2.50;99.90;;;;;;5096796;28;20026;-50
2021/12/15 08:07:34;;;;;;;194.38;80.90;;;2.50;99.90;;;;;;5092212;28;20032;-50
2021/12/15 08:10:03;;;;;;;197.52;75.97;;;2.50;99.90;;;;;;5092818;28;20451;-50
2021/12/15 08:12:29;;;;;;;178.88;74.65;;;2.50;99.90;;;;;;5096815;28;20434;-50
2021/12/15 08:14:55;;;;;;;169.77;71.00;;;2.60;99.90;;;;;;5093846;28;20083;-50
2021/12/15 08:17:25;;;;;;;173.18;76.30;;;2.70;99.90;;;;;;5093580;28;20020;-50
2021/12/15 08:19:51;;;;;;;171.18;75.78;;;2.70;99.90;;;;;;5097047;28;20024;-50
2021/12/15 08:22:17;;;;;;;191.52;77.68;;;2.70;99.90;;;;;;5091585;28;20060;-50
2021/12/15 08:24:43;;;;;;;177.18;75.43;;;2.80;99.90;;;;;;5095303;28;20068;-50
2021/12/15 08:27:12;;;;;;;194.15;76.40;;;2.80;99.90;;;;;;5094217;28;20024;-50
2021/12/15 08:29:41;;;;;;;209.25;83.15;;;2.70;99.90;;;;;;5092608;28;20423;-50
2021/12/15 08:32:08;;;;;;;311.75;94.25;;;2.70;99.90;;;;;;5127819;27;20051;-50
2021/12/15 08:34:34;;;;;;;254.73;94.63;;;2.80;99.90;;;;;;5088013;28;20107;-50
2021/12/15 08:37:00;;;;;;;233.90;83.13;;;2.90;99.90;;;;;;5093477;28;20052;-50
2021/12/15 08:39:26;;;;;;;242.45;85.63;;;2.80;99.90;;;;;;5087588;28;20115;-50
2021/12/15 08:41:52;;;;;;;336.05;96.55;;;2.70;99.90;;;;;;5093351;28;20020;-50
2021/12/15 08:44:18;;;;;;;308.20;101.78;;;2.60;99.90;;;;;;5090386;28;20036;-50
2021/12/15 08:46:47;;;;;;;414.80;108.85;;;2.80;99.90;;;;;;5087003;28;20039;-49
2021/12/15 08:49:17;;;;;;;365.33;110.97;;;2.90;99.90;;;;;;5084718;28;20028;-49
2021/12/15 08:51:45;;;;;;;322.15;102.63;;;2.90;99.90;;;;;;5087957;28;20052;-50
2021/12/15 08:54:14;;;;;;;322.67;104.78;;;2.90;99.90;;;;;;5088637;28;20033;-51
2021/12/15 08:56:42;;;;;;;337.38;107.00;;;2.90;99.90;;;;;;5094249;28;20024;-49
2021/12/15 08:59:09;;;;;;;314.02;101.82;;;3.00;99.90;;;;;;5094693;28;20057;-49
2021/12/15 09:01:35;;;;;;;285.95;94.07;;;3.20;99.90;;;;;;5093155;28;20414;-50
2021/12/15 09:04:01;;;;;;;257.48;86.07;;;3.20;99.90;;;;;;5085360;28;20102;-49
2021/12/15 09:06:28;;;;;;;245.82;86.07;;;3.20;99.90;;;;;;5084848;28;20020;-50
2021/12/15 09:08:54;;;;;;;226.55;82.50;;;3.20;99.90;;;;;;5119279;27;20035;-50
2021/12/15 09:11:24;;;;;;;233.25;85.90;;;3.30;99.90;;;;;;5092694;28;20545;-50
2021/12/15 09:13:54;;;;;;;214.82;81.35;;;3.50;99.90;;;;;;5091824;28;20024;-50
2021/12/15 09:16:21;;;;;;;250.13;87.57;;;3.60;99.90;;;;;;5093333;28;20074;-51
2021/12/15 09:18:49;;;;;;;218.57;83.18;;;3.60;99.90;;;;;;5094690;28;20283;-50
2021/12/15 09:21:18;;;;;;;220.93;80.13;;;3.50;99.90;;;;;;5088435;28;20038;-52
2021/12/15 09:23:45;;;;;;;246.27;85.68;;;3.40;99.90;;;;;;5095640;28;20086;-49
2021/12/15 09:26:12;;;;;;;242.55;84.32;;;3.40;99.90;;;;;;5095845;28;20111;-52
2021/12/15 09:28:38;;;;;;;262.33;88.95;;;3.50;99.90;;;;;;5095603;28;20074;-51
2021/12/15 09:31:06;;;;;;;268.45;87.80;;;3.40;99.90;;;;;;5096094;28;20024;-51
2021/12/15 09:33:33;;;;;;;249.82;87.18;;;3.40;99.90;;;;;;5096375;28;20016;-51
2021/12/15 09:36:01;;;;;;;259.60;92.82;;;3.50;99.90;;;;;;5096321;28;20103;-51
2021/12/15 09:38:28;;;;;;;287.30;94.93;;;3.50;99.90;;;;;;5096399;28;20020;-52
2021/12/15 09:40:57;;;;;;;307.20;110.43;;;3.50;99.90;;;;;;5096319;28;20050;-50
2021/12/15 09:43:28;;;;;;;322.17;115.50;;;3.60;99.90;;;;;;5081213;28;20029;-51
2021/12/15 09:46:13;;;;;;;317.60;118.68;;;3.60;99.90;;;;;;5086003;28;20016;-52
2021/12/15 10:02:28;;;;;;;305.05;123.25;;;3.70;99.90;;;;;;5093766;28;20500;-53
2021/12/15 10:18:35;;;;;;;343.20;133.80;;;4.20;99.90;;;;;;5088600;28;20123;-50
2021/12/15 10:21:02;;;;;;;325.48;132.75;;;4.30;99.90;;;;;;5092056;28;20028;-50
2021/12/15 10:23:36;;;;;;;333.83;134.43;;;4.30;99.90;;;;;;5087889;28;20032;-50
2021/12/15 10:26:04;;;;;;;324.05;135.30;;;4.30;99.90;;;;;;5088705;28;20033;-50
2021/12/15 10:28:32;;;;;;;327.83;133.05;;;4.30;99.90;;;;;;5092904;28;20021;-53
2021/12/15 10:31:01;;;;;;;335.70;142.05;;;4.40;99.90;;;;;;5074158;28;20028;-50
2021/12/15 10:33:38;;;;;;;337.88;144.05;;;4.40;99.90;;;;;;5090169;28;20036;-50
2021/12/15 10:36:12;;;;;;;361.58;151.98;;;4.50;99.90;;;;;;5091184;28;20024;-51
2021/12/15 10:38:47;;;;;;;377.25;160.10;;;4.50;99.90;;;;;;5092941;28;20024;-50
2021/12/15 10:41:33;;;;;;;377.80;159.70;;;4.50;99.90;;;;;;5090924;28;20105;-51
2021/12/15 10:44:09;;;;;;;346.63;143.70;;;4.60;99.90;;;;;;5090171;28;20032;-51
2021/12/15 10:46:49;;;;;;;372.77;159.90;;;4.60;99.90;;;;;;5104957;28;20028;-52
2021/12/15 10:49:19;;;;;;;362.58;151.40;;;4.70;99.90;;;;;;5086800;28;20079;-50
2021/12/15 10:51:53;;;;;;;372.40;158.98;;;4.70;99.90;;;;;;5087168;28;20055;-50
2021/12/15 10:54:36;;;;;;;328.10;143.35;;;4.60;99.90;;;;;;5086937;28;20473;-51
2021/12/15 10:57:12;;;;;;;321.67;140.38;;;4.70;99.90;;;;;;5092409;28;20074;-51
2021/12/15 10:59:48;;;;;;;327.40;140.68;;;4.70;99.90;;;;;;5088770;28;20470;-51
2021/12/15 11:02:21;;;;;;;322.75;137.60;;;4.80;99.90;;;;;;5089431;28;20039;-51
2021/12/15 11:04:55;;;;;;;332.17;140.60;;;4.80;99.90;;;;;;5088837;28;20047;-51
2021/12/15 11:07:26;;;;;;;317.23;130.13;;;4.80;99.90;;;;;;5092652;28;20106;-50
2021/12/15 11:09:55;;;;;;;296.33;125.28;;;4.80;99.90;;;;;;5089631;28;20031;-51
2021/12/15 11:12:32;;;;;;;279.00;115.00;;;4.90;99.90;;;;;;5088170;28;20056;-51
2021/12/15 11:15:22;;;;;;;287.23;119.22;;;5.00;99.90;;;;;;5090168;28;20036;-50
2021/12/15 11:17:50;;;;;;;219.82;91.55;;;5.00;99.90;;;;;;5087867;28;20036;-50
2021/12/15 11:20:25;;;;;;;289.02;119.47;;;5.00;99.90;;;;;;5088967;28;21344;-51
2021/12/15 11:23:05;;;;;;;314.02;132.65;;;5.00;99.90;;;;;;5091445;28;20032;-51
2021/12/15 11:25:31;;;;;;;297.17;127.57;;;5.00;99.90;;;;;;5091292;28;20042;-51
2021/12/15 11:28:14;;;;;;;317.42;131.75;;;4.90;99.90;;;;;;5091465;28;20439;-51
2021/12/15 11:30:50;;;;;;;309.55;126.55;;;4.90;99.90;;;;;;5090917;28;20087;-51
2021/12/15 11:33:26;;;;;;;310.35;132.02;;;4.90;99.90;;;;;;5090258;28;20082;-51
2021/12/15 11:36:09;;;;;;;329.33;138.93;;;4.90;99.90;;;;;;5089504;28;20056;-49
2021/12/15 11:38:45;;;;;;;312.98;132.45;;;5.00;99.90;;;;;;5092050;28;20020;-50
2021/12/15 11:41:22;;;;;;;301.17;130.52;;;5.00;99.90;;;;;;5092547;28;20081;-50
2021/12/15 11:43:55;;;;;;;298.75;127.75;;;5.00;99.90;;;;;;5089595;28;20478;-50
2021/12/15 11:46:35;;;;;;;308.73;127.85;;;5.10;99.90;;;;;;5091532;28;20153;-50
2021/12/15 11:49:03;;;;;;;324.02;130.32;;;5.20;99.90;;;;;;5090815;28;20370;-50
2021/12/15 11:51:48;;;;;;;317.52;129.35;;;5.20;99.90;;;;;;5092540;28;20036;-64
2021/12/15 11:54:49;;;;;;;304.73;124.35;;;5.30;99.90;;;;;;5078204;28;20212;-66
2021/12/15 11:57:24;;;;;;;305.35;120.60;;;5.30;99.90;;;;;;5090835;28;20040;-64
2021/12/15 11:59:59;;;;;;;283.58;117.18;;;5.20;99.90;;;;;;5082713;28;20229;-65
2021/12/15 12:02:31;;;;;;;295.02;122.70;;;5.20;99.90;;;;;;5090531;28;20016;-64
2021/12/15 12:05:07;;;;;;;303.27;120.72;;;5.20;99.90;;;;;;5089768;28;20608;-64
2021/12/15 12:07:47;;;;;;;292.27;120.78;;;5.40;99.90;;;;;;5092568;28;20036;-65
2021/12/15 12:10:43;;;;;;;298.77;121.83;;;5.40;99.90;;;;;;5089056;28;20035;-64
2021/12/15 12:13:20;;;;;;;300.48;124.93;;;5.30;99.90;;;;;;5088046;28;20558;-64
2021/12/15 12:15:49;;;;;;;340.33;141.43;;;5.30;99.90;;;;;;5096653;28;20049;-64
2021/12/15 12:18:23;;;;;;;323.63;136.38;;;5.40;99.90;;;;;;5096627;28;20032;-63
2021/12/15 12:20:53;;;;;;;344.02;141.15;;;5.40;99.90;;;;;;5094774;28;20020;-66
2021/12/15 12:23:25;;;;;;;338.60;142.48;;;5.40;99.90;;;;;;5095786;28;20138;-65
2021/12/15 12:26:01;;;;;;;347.52;139.25;;;5.30;99.90;;;;;;5095955;28;20028;-65
2021/12/15 12:28:30;;;;;;;334.02;135.70;;;5.50;99.90;;;;;;5096148;28;20466;-65
2021/12/15 12:31:09;;;;;;;333.42;131.30;;;5.60;99.90;;;;;;5093495;28;20024;-64
2021/12/15 12:33:35;;;;;;;345.58;134.45;;;5.50;99.90;;;;;;5090652;28;20029;-64
2021/12/15 12:36:07;;;;;;;351.95;135.20;;;5.60;99.90;;;;;;5091824;28;20016;-64
2021/12/15 12:38:36;;;;;;;363.45;133.18;;;5.50;99.90;;;;;;5097193;28;20107;-64
2021/12/15 12:41:16;;;;;;;330.50;131.15;;;5.50;99.90;;;;;;5095168;28;20024;-64
2021/12/15 12:43:48;;;;;;;346.25;134.02;;;5.50;99.90;;;;;;5095573;28;20020;-64
2021/12/15 12:46:23;;;;;;;341.15;129.55;;;5.30;99.90;;;;;;5093322;28;20063;-65
2021/12/15 12:49:29;;;;;;;332.52;131.82;;;5.40;99.90;;;;;;5094296;28;20366;-64
2021/12/15 13:01:00;;;;;;;374.63;137.98;;;5.50;99.90;;;;;;5093432;28;20025;-65
2021/12/15 13:03:35;;;;;;;354.75;142.80;;;5.60;99.90;;;;;;5094040;28;20099;-65
2021/12/15 13:06:06;;;;;;;366.33;141.15;;;5.60;99.90;;;;;;5094182;28;20020;-65
2021/12/15 13:08:40;;;;;;;353.02;139.18;;;5.50;99.90;;;;;;5094767;28;20024;-65
2021/12/15 13:11:15;;;;;;;364.25;142.70;;;5.50;99.90;;;;;;5092457;28;20392;-64
2021/12/15 13:14:12;;;;;;;384.23;150.18;;;5.50;99.90;;;;;;5094992;28;20474;-64
2021/12/15 13:16:49;;;;;;;388.30;151.63;;;5.50;99.90;;;;;;5092444;28;20081;-64
2021/12/15 13:19:22;;;;;;;418.38;155.70;;;5.60;99.90;;;;;;5091860;28;20658;-64
2021/12/15 13:30:54;;;;;;;419.75;155.55;;;5.70;99.90;;;;;;5086811;28;20032;-64
2021/12/15 13:33:36;;;;;;;408.90;156.73;;;5.60;99.90;;;;;;5088606;28;20119;-64
2021/12/15 13:36:31;;;;;;;391.50;150.50;;;5.50;99.90;;;;;;5083463;28;20020;-64
2021/12/15 13:39:08;;;;;;;398.35;150.80;;;5.60;99.90;;;;;;5075571;28;20481;-64
2021/12/15 13:41:41;;;;;;;399.98;153.48;;;5.50;99.90;;;;;;5085616;28;20019;-63
2021/12/15 13:44:35;;;;;;;403.67;155.27;;;5.50;99.90;;;;;;5093839;28;20024;-63
2021/12/15 13:47:07;;;;;;;406.92;154.65;;;5.40;99.90;;;;;;5089608;28;20029;-64
2021/12/15 13:49:56;;;;;;;430.95;162.35;;;5.30;99.90;;;;;;5087016;28;20027;-63
2021/12/15 13:52:34;;;;;;;436.50;160.73;;;5.30;99.90;;;;;;5085245;28;20041;-63
2021/12/15 13:55:23;;;;;;;462.42;177.65;;;5.30;99.90;;;;;;5094394;28;20484;-63
2021/12/15 13:57:51;;;;;;;473.63;180.52;;;5.10;99.90;;;;;;5089523;28;20043;-64
2021/12/15 14:00:26;;;;;;;477.33;184.43;;;5.10;99.90;;;;;;5091968;28;20028;-64
2021/12/15 14:02:57;;;;;;;500.83;187.88;;;5.10;99.90;;;;;;5086602;28;20059;-64
2021/12/15 14:05:27;;;;;;;504.55;192.85;;;5.10;99.90;;;;;;5073564;28;20521;-65
2021/12/15 14:08:12;;;;;;;489.48;191.07;;;5.00;99.90;;;;;;5090764;28;20036;-64
2021/12/15 14:10:43;;;;;;;505.77;196.38;;;5.00;99.90;;;;;;5088992;28;20551;-64
2021/12/15 14:13:10;;;;;;;488.55;186.32;;;4.90;99.90;;;;;;5091272;28;20476;-64